Time;durP1;ratioP1;P1;durP2;ratioP2;P2;SDS_P1;SDS_P2;PMS_P1;PMS_P2;Temp;Humidity;BMP_temperature;BMP_pressure;BME280_temperature;BME280_humidity;BME280_pressure;Samples;Min_cycle;Max_cycle;Signal;HPM_P1;HPM_P2
2021/07/28 00:01:03;;;;;;;58.90;3.27;;;19.10;1.00;;;;;;5075279;28;20447;-74
2021/07/28 00:03:29;;;;;;;58.57;2.70;;;19.10;1.00;;;;;;5075180;28;20542;-74
2021/07/28 00:05:56;;;;;;;58.57;2.83;;;19.10;1.00;;;;;;5075230;28;20473;-74
2021/07/28 00:08:23;;;;;;;58.27;2.60;;;19.10;1.00;;;;;;5075393;28;20548;-74
2021/07/28 00:10:50;;;;;;;57.87;2.87;;;19.10;1.00;;;;;;5075288;28;20479;-74
2021/07/28 00:13:18;;;;;;;58.80;4.10;;;19.10;1.00;;;;;;5074745;28;20574;-73
2021/07/28 00:15:45;;;;;;;58.47;2.97;;;19.10;1.00;;;;;;5074989;28;21055;-74
2021/07/28 00:18:25;;;;;;;58.40;2.70;;;19.10;1.00;;;;;;5075002;28;20446;-74
2021/07/28 00:23:36;;;;;;;58.90;3.07;;;19.10;1.00;;;;;;5074775;28;20426;-74
2021/07/28 00:26:03;;;;;;;58.33;2.80;;;19.10;1.00;;;;;;5074688;28;20554;-74
2021/07/28 00:28:31;;;;;;;58.87;3.20;;;19.10;1.00;;;;;;5075085;28;20875;-74
2021/07/28 00:30:58;;;;;;;60.40;4.77;;;19.10;1.00;;;;;;5074876;28;20453;-74
2021/07/28 00:33:25;;;;;;;58.50;3.10;;;19.10;1.00;;;;;;5074459;28;21052;-74
2021/07/28 00:35:54;;;;;;;58.03;2.60;;;19.00;1.00;;;;;;5074627;28;20462;-74
2021/07/28 00:38:21;;;;;;;58.13;2.73;;;19.00;1.00;;;;;;5074533;28;20456;-74
2021/07/28 00:40:48;;;;;;;58.50;2.67;;;19.10;1.00;;;;;;5074602;28;20785;-74
2021/07/28 00:43:16;;;;;;;57.93;2.93;;;19.00;1.00;;;;;;5074473;28;20457;-74
2021/07/28 00:45:44;;;;;;;58.03;3.10;;;19.00;1.00;;;;;;5074457;28;21019;-74
2021/07/28 00:48:14;;;;;;;58.90;2.83;;;19.10;1.00;;;;;;5074494;28;20530;-74
2021/07/28 00:50:42;;;;;;;58.87;3.50;;;19.10;1.00;;;;;;5074606;28;20827;-74
2021/07/28 00:53:16;;;;;;;57.90;2.70;;;19.00;1.00;;;;;;5073855;28;20573;-75
2021/07/28 00:55:44;;;;;;;58.17;2.93;;;19.00;1.00;;;;;;5073156;28;20838;-75
2021/07/28 00:58:11;;;;;;;58.20;2.67;;;18.90;1.00;;;;;;5074391;28;20972;-75
2021/07/28 01:00:38;;;;;;;58.23;2.77;;;18.90;1.00;;;;;;5074322;28;20833;-75
2021/07/28 01:03:06;;;;;;;58.20;2.67;;;18.80;1.00;;;;;;5073958;28;20550;-74
2021/07/28 01:05:33;;;;;;;58.60;2.60;;;18.80;1.00;;;;;;5074046;28;20478;-74
2021/07/28 01:08:00;;;;;;;59.37;2.97;;;18.70;1.00;;;;;;5074412;28;20534;-74
2021/07/28 01:10:27;;;;;;;61.57;3.70;;;18.70;1.00;;;;;;5074118;28;20552;-74
2021/07/28 01:12:55;;;;;;;58.60;2.70;;;18.60;1.00;;;;;;5074027;28;20569;-74
2021/07/28 01:15:32;;;;;;;58.70;3.27;;;18.60;1.00;;;;;;5074080;28;20520;-74
2021/07/28 01:18:00;;;;;;;58.27;2.70;;;18.60;1.00;;;;;;5074053;28;20872;-74
2021/07/28 01:20:33;;;;;;;58.67;3.70;;;18.60;1.00;;;;;;5074190;28;20492;-74
2021/07/28 01:23:03;;;;;;;57.87;2.50;;;18.60;1.00;;;;;;5073808;28;20439;-74
2021/07/28 01:25:33;;;;;;;58.27;3.27;;;18.50;1.00;;;;;;5073955;28;20835;-74
2021/07/28 01:28:01;;;;;;;58.07;3.20;;;18.50;1.00;;;;;;5073859;28;20450;-74
2021/07/28 01:30:28;;;;;;;58.90;3.70;;;18.50;1.00;;;;;;5073681;28;20450;-74
2021/07/28 01:32:55;;;;;;;58.20;2.27;;;18.50;1.00;;;;;;5073593;28;20482;-74
2021/07/28 01:35:23;;;;;;;58.30;2.90;;;18.50;1.00;;;;;;5073825;28;20561;-74
2021/07/28 01:37:50;;;;;;;58.30;2.90;;;18.50;1.00;;;;;;5073590;28;21034;-74
2021/07/28 01:40:17;;;;;;;59.33;3.53;;;18.50;1.00;;;;;;5073695;28;20456;-74
2021/07/28 01:42:47;;;;;;;58.60;3.43;;;18.50;1.00;;;;;;5073135;28;20965;-74
2021/07/28 01:45:15;;;;;;;58.00;2.67;;;18.50;1.00;;;;;;5073284;28;20491;-74
2021/07/28 01:47:42;;;;;;;58.20;2.50;;;18.50;1.00;;;;;;5073621;28;20472;-74
2021/07/28 01:50:10;;;;;;;57.77;3.20;;;18.50;1.00;;;;;;5073330;28;20454;-75
2021/07/28 01:52:38;;;;;;;58.30;3.27;;;18.50;1.00;;;;;;5073084;28;20485;-74
2021/07/28 01:55:07;;;;;;;59.17;3.37;;;18.40;1.00;;;;;;5073167;28;20478;-75
2021/07/28 01:57:34;;;;;;;58.40;2.80;;;18.40;1.00;;;;;;5073101;28;20455;-74
2021/07/28 02:00:02;;;;;;;57.80;2.90;;;18.40;1.00;;;;;;5073415;28;20537;-74
2021/07/28 02:02:31;;;;;;;59.00;3.67;;;18.40;1.00;;;;;;5072869;28;20498;-75
2021/07/28 02:04:59;;;;;;;58.70;3.10;;;18.40;2.00;;;;;;5072904;28;20993;-75
2021/07/28 02:07:26;;;;;;;57.77;2.67;;;18.40;1.10;;;;;;5072655;28;20483;-74
2021/07/28 02:09:53;;;;;;;58.40;2.93;;;18.40;1.40;;;;;;5072959;28;20449;-74
2021/07/28 02:12:20;;;;;;;58.80;3.07;;;18.40;1.20;;;;;;5072394;28;20483;-75
2021/07/28 02:14:47;;;;;;;58.20;2.63;;;18.40;1.10;;;;;;5072968;28;20472;-75
2021/07/28 02:17:16;;;;;;;57.83;2.80;;;18.40;3.70;;;;;;5072785;28;20450;-75
2021/07/28 02:19:43;;;;;;;58.10;2.60;;;18.40;7.70;;;;;;5072906;28;20551;-75
2021/07/28 02:22:11;;;;;;;58.23;2.83;;;18.40;11.90;;;;;;5072382;28;20458;-75
2021/07/28 02:24:38;;;;;;;59.37;2.87;;;18.30;12.10;;;;;;5072463;28;21012;-75
2021/07/28 02:27:06;;;;;;;58.07;2.67;;;18.30;14.00;;;;;;5072838;28;21017;-75
2021/07/28 02:29:33;;;;;;;59.30;3.17;;;18.30;15.80;;;;;;5072761;28;20538;-75
2021/07/28 02:32:01;;;;;;;57.87;2.77;;;18.30;18.00;;;;;;5072367;28;20486;-74
2021/07/28 02:34:30;;;;;;;59.60;4.33;;;18.30;22.10;;;;;;5072479;28;20455;-74
2021/07/28 02:36:57;;;;;;;58.70;2.70;;;18.30;24.40;;;;;;5072409;28;20447;-74
2021/07/28 02:39:23;;;;;;;58.60;2.87;;;18.30;24.80;;;;;;5072238;28;20543;-74
2021/07/28 02:41:50;;;;;;;57.97;3.00;;;18.20;24.90;;;;;;5072230;28;20457;-74
2021/07/28 02:44:18;;;;;;;57.87;2.77;;;18.20;24.30;;;;;;5072401;28;20845;-74
2021/07/28 02:46:45;;;;;;;58.47;2.67;;;18.20;24.90;;;;;;5072275;28;20554;-74
2021/07/28 02:49:12;;;;;;;58.30;3.00;;;18.20;26.40;;;;;;5072224;28;20489;-74
2021/07/28 02:51:40;;;;;;;58.50;2.73;;;18.20;28.10;;;;;;5072218;28;20454;-74
2021/07/28 02:54:08;;;;;;;58.50;3.13;;;18.10;29.20;;;;;;5072018;28;20569;-74
2021/07/28 02:56:35;;;;;;;58.50;3.30;;;18.10;28.10;;;;;;5072047;28;20990;-74
2021/07/28 02:59:02;;;;;;;58.37;2.60;;;18.10;29.50;;;;;;5072284;28;20915;-74
2021/07/28 03:01:29;;;;;;;57.87;2.50;;;18.10;30.30;;;;;;5071895;28;20455;-74
2021/07/28 03:03:56;;;;;;;58.70;2.90;;;18.00;31.50;;;;;;5071825;28;20490;-74
2021/07/28 03:06:23;;;;;;;57.97;2.40;;;18.00;32.50;;;;;;5071781;28;20551;-74
2021/07/28 03:08:51;;;;;;;58.07;2.87;;;18.00;33.80;;;;;;5071955;28;20451;-74
2021/07/28 03:11:17;;;;;;;59.60;2.77;;;18.00;34.80;;;;;;5071718;28;20545;-75
2021/07/28 03:13:44;;;;;;;59.43;3.50;;;18.00;36.90;;;;;;5071775;28;20483;-74
2021/07/28 03:16:11;;;;;;;58.60;2.67;;;18.00;37.90;;;;;;5071707;28;20561;-74
2021/07/28 03:18:38;;;;;;;58.67;3.50;;;18.00;38.90;;;;;;5071114;28;20930;-74
2021/07/28 03:21:05;;;;;;;58.57;2.67;;;18.00;40.50;;;;;;5071599;28;20451;-74
2021/07/28 03:23:32;;;;;;;58.10;2.50;;;18.00;41.30;;;;;;5071828;28;20533;-74
2021/07/28 03:26:00;;;;;;;57.87;2.47;;;18.00;41.80;;;;;;5071906;28;20935;-74
2021/07/28 03:28:28;;;;;;;58.40;3.10;;;17.90;41.60;;;;;;5071877;28;20826;-74
2021/07/28 03:30:54;;;;;;;57.83;2.80;;;18.00;41.60;;;;;;5071728;28;20549;-74
2021/07/28 03:33:21;;;;;;;57.77;2.77;;;17.90;41.40;;;;;;5071280;28;21077;-74
2021/07/28 03:35:48;;;;;;;58.10;2.70;;;17.90;42.20;;;;;;5071492;28;20466;-74
2021/07/28 03:38:15;;;;;;;58.17;2.70;;;17.90;43.10;;;;;;5071878;28;20830;-75
2021/07/28 03:40:42;;;;;;;58.17;2.37;;;17.90;44.70;;;;;;5071635;28;20483;-75
2021/07/28 03:43:10;;;;;;;58.37;3.03;;;17.90;43.60;;;;;;5071446;28;20813;-74
2021/07/28 03:45:37;;;;;;;58.13;2.70;;;17.90;44.20;;;;;;5071538;28;21070;-74
2021/07/28 03:48:05;;;;;;;59.00;3.17;;;17.90;44.30;;;;;;5071573;28;20828;-74
2021/07/28 03:50:32;;;;;;;58.17;2.60;;;17.90;44.20;;;;;;5071719;28;20443;-74
2021/07/28 03:53:00;;;;;;;58.60;3.23;;;17.90;43.30;;;;;;5071287;28;20483;-75
2021/07/28 03:55:27;;;;;;;58.30;2.90;;;17.90;43.20;;;;;;5071485;28;20470;-74
2021/07/28 03:57:54;;;;;;;59.37;2.80;;;17.90;42.30;;;;;;5071560;28;20825;-74
2021/07/28 04:00:22;;;;;;;58.47;3.10;;;17.90;42.10;;;;;;5071451;28;20954;-75
2021/07/28 04:02:49;;;;;;;58.77;3.20;;;17.90;42.40;;;;;;5071009;28;20538;-75
2021/07/28 04:05:16;;;;;;;58.90;3.37;;;17.90;41.80;;;;;;5071477;28;20884;-75
2021/07/28 04:07:45;;;;;;;59.53;3.73;;;17.90;41.40;;;;;;5071269;28;20541;-75
2021/07/28 04:10:12;;;;;;;58.27;2.50;;;17.90;41.20;;;;;;5071463;28;20487;-75
2021/07/28 04:12:39;;;;;;;57.97;2.80;;;17.90;41.30;;;;;;5071000;28;20526;-74
2021/07/28 04:15:08;;;;;;;58.90;3.20;;;18.00;40.90;;;;;;5071154;28;20479;-74
2021/07/28 04:17:36;;;;;;;58.87;3.57;;;18.00;41.70;;;;;;5071523;28;20454;-75
2021/07/28 04:20:03;;;;;;;58.17;2.80;;;18.00;41.30;;;;;;5071466;28;20454;-74
2021/07/28 04:22:30;;;;;;;58.23;2.80;;;18.00;41.90;;;;;;5071102;28;20451;-74
2021/07/28 04:24:57;;;;;;;58.40;3.07;;;17.90;40.60;;;;;;5071165;28;20985;-74
2021/07/28 04:27:27;;;;;;;58.40;3.27;;;17.90;40.90;;;;;;5071193;28;20500;-74
2021/07/28 04:29:54;;;;;;;58.03;2.57;;;17.90;39.90;;;;;;5073339;28;20519;-75
2021/07/28 04:32:20;;;;;;;58.90;3.10;;;17.90;39.70;;;;;;5074780;28;20812;-75
2021/07/28 04:34:49;;;;;;;58.50;3.10;;;17.90;41.20;;;;;;5075029;28;20490;-75
2021/07/28 04:37:16;;;;;;;58.07;2.60;;;18.00;42.30;;;;;;5074792;28;20443;-75
2021/07/28 04:39:44;;;;;;;58.07;2.70;;;18.00;44.20;;;;;;5074784;28;20538;-75
2021/07/28 04:42:11;;;;;;;57.97;2.60;;;18.00;43.60;;;;;;5074278;28;20505;-75
2021/07/28 04:44:37;;;;;;;58.80;3.53;;;18.00;41.60;;;;;;5074531;28;21006;-75
2021/07/28 04:47:05;;;;;;;58.70;3.37;;;18.00;41.70;;;;;;5074782;28;20494;-75
2021/07/28 04:49:32;;;;;;;58.37;3.03;;;18.00;41.70;;;;;;5074625;28;20799;-75
2021/07/28 04:52:00;;;;;;;58.50;3.33;;;18.00;42.00;;;;;;5074296;28;20543;-74
2021/07/28 04:54:26;;;;;;;58.20;2.70;;;18.00;42.60;;;;;;5074368;28;20568;-74
2021/07/28 04:56:53;;;;;;;59.67;4.77;;;18.10;44.20;;;;;;5074342;28;20546;-74
2021/07/28 04:59:20;;;;;;;58.60;3.60;;;18.10;45.50;;;;;;5074351;28;20545;-74
2021/07/28 05:01:47;;;;;;;59.07;3.37;;;18.20;46.20;;;;;;5074127;28;20535;-74
2021/07/28 05:04:14;;;;;;;58.07;2.70;;;18.30;46.20;;;;;;5074212;28;20458;-74
2021/07/28 05:06:41;;;;;;;58.27;3.10;;;18.40;45.10;;;;;;5074172;28;20467;-74
2021/07/28 05:09:12;;;;;;;58.60;3.10;;;18.40;43.60;;;;;;5074114;28;20446;-74
2021/07/28 05:11:39;;;;;;;58.17;2.60;;;18.50;38.90;;;;;;5073909;28;20451;-74
2021/07/28 05:14:06;;;;;;;59.23;2.70;;;18.50;36.10;;;;;;5074048;28;20582;-74
2021/07/28 05:16:33;;;;;;;58.77;4.03;;;18.50;33.70;;;;;;5073960;28;20555;-75
2021/07/28 05:18:59;;;;;;;59.07;3.70;;;18.50;31.50;;;;;;5074039;28;20457;-75
2021/07/28 05:21:26;;;;;;;58.07;2.70;;;18.50;31.50;;;;;;5073864;28;20482;-75
2021/07/28 05:23:53;;;;;;;58.77;2.57;;;18.50;32.60;;;;;;5073861;28;20439;-75
2021/07/28 05:26:21;;;;;;;57.73;2.40;;;18.50;31.00;;;;;;5073806;28;21010;-74
2021/07/28 05:28:48;;;;;;;57.63;2.80;;;18.50;30.90;;;;;;5073974;28;20466;-74
2021/07/28 05:31:15;;;;;;;58.17;2.67;;;18.50;31.70;;;;;;5073803;28;20886;-75
2021/07/28 05:33:42;;;;;;;58.80;3.23;;;18.50;31.30;;;;;;5073456;28;21041;-74
2021/07/28 05:36:09;;;;;;;58.33;3.13;;;18.50;31.50;;;;;;5073567;28;20997;-74
2021/07/28 05:38:36;;;;;;;58.43;2.60;;;18.50;30.80;;;;;;5073557;28;20826;-74
2021/07/28 05:41:04;;;;;;;58.80;3.87;;;18.60;32.40;;;;;;5072811;28;20978;-74
2021/07/28 05:43:32;;;;;;;58.70;3.53;;;18.60;32.20;;;;;;5073503;28;20471;-74
2021/07/28 05:45:59;;;;;;;58.67;3.20;;;18.70;33.40;;;;;;5073458;28;20605;-74
2021/07/28 05:48:31;;;;;;;58.13;3.50;;;18.70;33.30;;;;;;5073474;28;20930;-75
2021/07/28 05:50:58;;;;;;;58.40;2.70;;;18.70;32.40;;;;;;5073285;28;20455;-75
2021/07/28 05:53:25;;;;;;;59.10;3.97;;;18.80;32.00;;;;;;5073303;28;20483;-74
2021/07/28 05:55:53;;;;;;;58.17;2.70;;;18.90;33.00;;;;;;5073389;28;20550;-74
2021/07/28 05:58:20;;;;;;;58.20;2.70;;;18.90;34.30;;;;;;5073565;28;20479;-75
2021/07/28 06:00:49;;;;;;;58.30;3.33;;;18.90;31.60;;;;;;5073148;28;20509;-74
2021/07/28 06:03:16;;;;;;;58.17;2.40;;;18.90;28.40;;;;;;5072756;28;21110;-74
2021/07/28 06:05:43;;;;;;;58.40;2.80;;;18.90;24.20;;;;;;5072911;28;20468;-74
2021/07/28 06:08:10;;;;;;;57.67;2.40;;;18.90;20.40;;;;;;5073213;28;20455;-74
2021/07/28 06:10:37;;;;;;;57.83;2.60;;;18.90;18.70;;;;;;5072979;28;20457;-74
2021/07/28 06:13:04;;;;;;;58.90;3.37;;;18.90;13.90;;;;;;5072711;28;20448;-74
2021/07/28 06:15:31;;;;;;;57.97;2.50;;;18.90;9.30;;;;;;5072718;28;20574;-74
2021/07/28 06:17:59;;;;;;;58.27;2.60;;;18.90;6.60;;;;;;5072834;28;20881;-74
2021/07/28 06:20:26;;;;;;;58.10;2.60;;;18.90;4.30;;;;;;5072740;28;20538;-74
2021/07/28 06:22:53;;;;;;;57.77;2.33;;;19.00;4.40;;;;;;5072437;28;20495;-74
2021/07/28 06:25:20;;;;;;;57.73;2.60;;;19.10;4.40;;;;;;5072710;28;20546;-74
2021/07/28 06:27:49;;;;;;;58.20;2.60;;;19.20;4.10;;;;;;5072742;28;20447;-74
2021/07/28 06:30:17;;;;;;;57.97;2.60;;;19.30;1.00;;;;;;5072706;28;20886;-74
2021/07/28 06:32:43;;;;;;;58.67;3.13;;;19.30;1.00;;;;;;5072192;28;20967;-74
2021/07/28 06:35:12;;;;;;;58.03;2.20;;;19.40;1.00;;;;;;5072346;28;20526;-74
2021/07/28 06:37:39;;;;;;;57.50;2.70;;;19.40;1.00;;;;;;5072478;28;20451;-74
2021/07/28 06:40:07;;;;;;;58.10;2.50;;;19.40;1.00;;;;;;5072797;28;20526;-74
2021/07/28 06:42:34;;;;;;;58.43;3.00;;;19.30;1.00;;;;;;5072021;28;20495;-74
2021/07/28 06:45:01;;;;;;;57.97;2.27;;;19.30;1.00;;;;;;5072125;28;20542;-74
2021/07/28 06:47:28;;;;;;;58.40;2.93;;;19.20;1.00;;;;;;5072466;28;20478;-74
2021/07/28 06:49:55;;;;;;;58.87;3.80;;;19.10;1.00;;;;;;5072274;28;20451;-74
2021/07/28 06:52:23;;;;;;;58.40;2.90;;;19.10;1.00;;;;;;5072005;28;20512;-74
2021/07/28 06:54:50;;;;;;;58.10;2.53;;;19.10;1.00;;;;;;5072156;28;20582;-74
2021/07/28 06:57:16;;;;;;;58.17;2.53;;;19.00;1.00;;;;;;5072238;28;20883;-75
2021/07/28 06:59:43;;;;;;;57.87;2.27;;;18.90;1.00;;;;;;5071954;28;20550;-75
2021/07/28 07:02:10;;;;;;;58.03;2.50;;;18.80;1.00;;;;;;5071914;28;20876;-75
2021/07/28 07:04:37;;;;;;;57.73;2.50;;;18.80;1.00;;;;;;5072254;28;20486;-75
2021/07/28 07:07:04;;;;;;;58.17;2.87;;;18.70;1.00;;;;;;5072222;28;20475;-75
2021/07/28 07:09:32;;;;;;;57.73;2.60;;;18.60;1.00;;;;;;5072032;28;20489;-75
2021/07/28 07:11:59;;;;;;;58.37;3.23;;;18.60;1.00;;;;;;5071518;28;20451;-75
2021/07/28 07:14:26;;;;;;;58.13;2.70;;;18.60;1.00;;;;;;5071673;28;20575;-74
2021/07/28 07:16:55;;;;;;;58.40;2.50;;;18.60;1.00;;;;;;5071918;28;20956;-74
2021/07/28 07:19:22;;;;;;;58.20;2.63;;;18.60;1.00;;;;;;5072121;28;20558;-74
2021/07/28 07:21:49;;;;;;;59.17;2.50;;;18.70;1.00;;;;;;5071708;28;20478;-74
2021/07/28 07:24:15;;;;;;;58.40;3.00;;;18.70;1.00;;;;;;5072298;28;20491;-74
2021/07/28 07:26:44;;;;;;;57.93;2.60;;;18.80;1.00;;;;;;5071771;28;20553;-74
2021/07/28 07:29:10;;;;;;;58.37;3.13;;;18.80;1.00;;;;;;5072073;28;20863;-75
2021/07/28 07:31:37;;;;;;;58.20;2.90;;;18.80;1.00;;;;;;5071906;28;20458;-74
2021/07/28 07:34:04;;;;;;;57.90;2.87;;;18.90;1.00;;;;;;5071883;28;20566;-74
2021/07/28 07:36:31;;;;;;;58.33;2.73;;;18.90;1.00;;;;;;5071643;28;21039;-74
2021/07/28 07:38:58;;;;;;;57.73;2.60;;;18.90;1.00;;;;;;5071788;28;20447;-74
2021/07/28 07:41:25;;;;;;;58.50;2.70;;;18.90;1.00;;;;;;5071332;28;20454;-74
2021/07/28 07:43:53;;;;;;;59.20;4.53;;;18.80;1.00;;;;;;5071528;28;20455;-74
2021/07/28 07:46:20;;;;;;;57.77;2.50;;;18.90;1.00;;;;;;5071559;28;20550;-74
2021/07/28 07:48:47;;;;;;;57.93;2.77;;;18.90;1.00;;;;;;5071727;28;20448;-74
2021/07/28 07:51:14;;;;;;;58.47;3.00;;;19.00;1.00;;;;;;5071600;28;20896;-74
2021/07/28 07:53:41;;;;;;;58.47;3.10;;;19.00;1.00;;;;;;5071340;28;20450;-74
2021/07/28 07:56:07;;;;;;;58.40;2.87;;;19.10;1.00;;;;;;5071746;28;20472;-74
2021/07/28 07:58:35;;;;;;;58.40;3.17;;;19.30;1.00;;;;;;5071419;28;20968;-74
2021/07/28 08:01:07;;;;;;;58.87;4.30;;;19.40;1.00;;;;;;5071441;28;21006;-74
2021/07/28 08:03:34;;;;;;;58.20;2.50;;;19.30;1.00;;;;;;5071294;28;20462;-74
2021/07/28 08:06:01;;;;;;;57.67;2.60;;;19.20;1.00;;;;;;5074080;28;20465;-75
2021/07/28 08:08:28;;;;;;;59.00;2.83;;;19.10;1.00;;;;;;5074795;28;20935;-73
2021/07/28 08:10:56;;;;;;;57.77;2.60;;;18.90;1.00;;;;;;5075060;28;20442;-74
2021/07/28 08:13:23;;;;;;;58.40;2.87;;;18.70;1.00;;;;;;5075268;28;20449;-73
2021/07/28 08:15:50;;;;;;;57.77;2.30;;;18.50;1.00;;;;;;5075287;28;20491;-75
2021/07/28 08:18:19;;;;;;;58.30;2.80;;;18.40;1.00;;;;;;5075304;28;20542;-73
2021/07/28 08:20:46;;;;;;;58.50;2.60;;;18.30;1.00;;;;;;5075154;28;20454;-73
2021/07/28 08:23:14;;;;;;;57.80;3.00;;;18.30;1.00;;;;;;5074747;28;20481;-73
2021/07/28 08:25:41;;;;;;;58.70;2.57;;;18.20;1.00;;;;;;5074933;28;20466;-75
2021/07/28 08:28:08;;;;;;;58.13;2.87;;;18.10;1.00;;;;;;5075020;28;20994;-75
2021/07/28 08:30:35;;;;;;;58.07;3.47;;;18.10;1.00;;;;;;5075046;28;20443;-74
2021/07/28 08:33:01;;;;;;;58.17;2.40;;;18.10;1.00;;;;;;5074609;28;20541;-74
2021/07/28 08:35:30;;;;;;;58.37;2.70;;;18.10;1.00;;;;;;5074611;28;20486;-76
2021/07/28 08:37:56;;;;;;;58.33;2.90;;;18.20;1.00;;;;;;5074966;28;20837;-72
2021/07/28 08:40:23;;;;;;;59.23;2.50;;;18.20;1.00;;;;;;5074721;28;20460;-75
2021/07/28 08:42:51;;;;;;;57.97;2.30;;;18.30;1.00;;;;;;5074509;28;20529;-75
2021/07/28 08:45:18;;;;;;;57.27;2.27;;;18.30;1.00;;;;;;5074536;28;20554;-76
2021/07/28 08:47:46;;;;;;;58.07;2.50;;;18.40;1.00;;;;;;5074551;28;20453;-73
2021/07/28 08:50:14;;;;;;;58.30;2.53;;;18.40;1.00;;;;;;5074480;28;20541;-74
2021/07/28 08:52:42;;;;;;;58.40;2.87;;;18.40;1.00;;;;;;5074417;28;20534;-74
2021/07/28 08:55:10;;;;;;;58.17;3.20;;;18.40;1.00;;;;;;5074508;28;20853;-73
2021/07/28 08:57:37;;;;;;;57.93;3.20;;;18.40;1.00;;;;;;5074507;28;20834;-74
2021/07/28 09:00:07;;;;;;;58.57;2.60;;;18.40;1.00;;;;;;5074463;28;20455;-74
2021/07/28 09:02:33;;;;;;;57.87;2.20;;;18.50;1.00;;;;;;5073804;28;20459;-73
2021/07/28 09:05:00;;;;;;;58.80;3.00;;;18.60;1.00;;;;;;5074131;28;20585;-72
2021/07/28 09:07:27;;;;;;;58.00;2.50;;;18.70;1.00;;;;;;5074450;28;20455;-73
2021/07/28 09:09:57;;;;;;;58.80;3.00;;;18.80;1.00;;;;;;5074200;28;21015;-73
2021/07/28 09:12:32;;;;;;;58.50;3.40;;;19.00;1.00;;;;;;5073930;28;20866;-74
2021/07/28 09:15:02;;;;;;;57.97;2.60;;;19.10;1.00;;;;;;5073827;28;20486;-74
2021/07/28 09:17:30;;;;;;;59.10;3.30;;;19.20;1.00;;;;;;5073318;28;20553;-74
2021/07/28 09:19:58;;;;;;;57.97;2.20;;;19.20;1.00;;;;;;5074247;28;20523;-75
2021/07/28 09:22:33;;;;;;;57.97;2.60;;;19.30;1.00;;;;;;5073661;28;20473;-75
2021/07/28 09:25:15;;;;;;;61.07;4.93;;;19.40;1.00;;;;;;5073916;28;20466;-74
2021/07/28 09:27:45;;;;;;;57.57;2.40;;;19.40;1.00;;;;;;5073894;28;20977;-74
2021/07/28 09:30:16;;;;;;;57.77;2.70;;;19.40;1.00;;;;;;5074044;28;20558;-73
2021/07/28 09:33:05;;;;;;;57.83;2.77;;;19.50;1.00;;;;;;5073662;28;20457;-74
2021/07/28 09:36:09;;;;;;;57.37;2.40;;;19.60;1.00;;;;;;5073700;28;20491;-74
2021/07/28 09:38:42;;;;;;;58.07;2.60;;;19.60;1.00;;;;;;5073635;28;20453;-75
2021/07/28 09:41:21;;;;;;;58.77;2.83;;;19.80;1.00;;;;;;5073559;28;20453;-73
2021/07/28 09:43:53;;;;;;;58.03;2.77;;;19.90;1.00;;;;;;5073608;28;20451;-73
2021/07/28 09:46:22;;;;;;;58.60;3.37;;;19.90;1.00;;;;;;5073470;28;20473;-71
2021/07/28 09:48:49;;;;;;;57.97;2.30;;;20.00;1.00;;;;;;5073653;28;20448;-70
2021/07/28 09:51:22;;;;;;;58.70;3.30;;;20.20;1.00;;;;;;5073470;28;20456;-71
2021/07/28 09:53:54;;;;;;;57.20;2.27;;;20.20;1.00;;;;;;5073438;28;20527;-71
2021/07/28 09:56:31;;;;;;;57.97;2.20;;;20.30;1.00;;;;;;5073203;28;20567;-70
2021/07/28 09:58:59;;;;;;;58.40;2.80;;;20.30;1.00;;;;;;5073171;28;21076;-71
2021/07/28 10:01:27;;;;;;;57.73;2.10;;;20.30;1.00;;;;;;5072969;28;20872;-72
2021/07/28 10:03:57;;;;;;;57.97;2.83;;;20.30;1.00;;;;;;5073132;28;20465;-71
2021/07/28 10:06:29;;;;;;;58.20;2.50;;;20.50;1.00;;;;;;5073040;28;21012;-71
2021/07/28 10:08:58;;;;;;;57.73;2.20;;;20.80;1.00;;;;;;5073014;28;20468;-71
2021/07/28 10:11:25;;;;;;;58.50;2.83;;;20.90;1.00;;;;;;5072565;28;20546;-72
2021/07/28 10:13:55;;;;;;;58.60;2.77;;;21.10;1.00;;;;;;5072716;28;20950;-72
2021/07/28 10:16:23;;;;;;;57.67;2.10;;;21.20;1.00;;;;;;5072874;28;20512;-72
2021/07/28 10:18:51;;;;;;;58.13;2.27;;;21.40;1.00;;;;;;5072863;28;20973;-71
2021/07/28 10:21:19;;;;;;;57.87;2.43;;;21.60;1.00;;;;;;5072543;28;20466;-72
2021/07/28 10:23:48;;;;;;;58.50;2.43;;;21.70;1.00;;;;;;5072507;28;20454;-72
2021/07/28 10:26:18;;;;;;;57.90;2.17;;;21.70;1.00;;;;;;5072793;28;20558;-72
2021/07/28 10:28:46;;;;;;;58.07;2.50;;;21.80;1.00;;;;;;5072424;28;20455;-72
2021/07/28 10:31:16;;;;;;;62.17;3.27;;;21.90;1.00;;;;;;5072618;28;20454;-72
2021/07/28 10:33:51;;;;;;;57.87;2.97;;;21.90;1.00;;;;;;5072625;28;20553;-72
2021/07/28 10:36:19;;;;;;;58.07;2.47;;;21.90;1.00;;;;;;5072265;28;20546;-72
2021/07/28 10:38:54;;;;;;;58.50;2.70;;;22.00;1.00;;;;;;5072571;28;20448;-72
2021/07/28 10:41:49;;;;;;;58.10;2.30;;;22.20;1.00;;;;;;5072418;28;20530;-72
2021/07/28 10:44:18;;;;;;;57.50;2.40;;;22.20;1.00;;;;;;5070336;28;20458;-72
2021/07/28 10:47:21;;;;;;;58.80;2.90;;;22.00;1.00;;;;;;5071896;28;20554;-72
2021/07/28 10:49:50;;;;;;;58.87;3.17;;;21.70;1.00;;;;;;5051260;28;20875;-72
2021/07/28 10:52:37;;;;;;;57.80;2.20;;;21.50;1.00;;;;;;5051862;28;20459;-72
2021/07/28 10:55:20;;;;;;;57.80;2.33;;;21.50;1.00;;;;;;5051903;28;20488;-72
2021/07/28 10:58:20;;;;;;;57.43;2.50;;;21.50;1.00;;;;;;5050394;28;20465;-72
2021/07/28 11:00:49;;;;;;;57.97;2.37;;;21.50;1.00;;;;;;5052171;28;20876;-72
2021/07/28 11:03:17;;;;;;;57.87;2.40;;;21.70;1.00;;;;;;5051653;28;20460;-72
2021/07/28 11:05:49;;;;;;;58.40;2.60;;;22.20;1.00;;;;;;5052090;28;20475;-72
2021/07/28 11:08:19;;;;;;;58.60;2.63;;;22.80;1.00;;;;;;5052178;28;20458;-71
2021/07/28 11:10:58;;;;;;;57.67;2.17;;;23.00;1.00;;;;;;5052070;28;20483;-72
2021/07/28 11:13:27;;;;;;;57.90;2.20;;;23.10;1.00;;;;;;5051706;28;20448;-72
2021/07/28 11:15:56;;;;;;;58.10;2.30;;;23.00;1.00;;;;;;5052030;28;20498;-72
2021/07/28 11:18:37;;;;;;;58.07;2.40;;;22.80;1.00;;;;;;5051387;28;20452;-72
2021/07/28 11:21:11;;;;;;;57.67;2.50;;;22.60;1.00;;;;;;5071586;28;20458;-71
2021/07/28 11:23:49;;;;;;;57.57;2.20;;;22.50;1.00;;;;;;5071721;28;20471;-72
2021/07/28 11:26:21;;;;;;;58.10;2.40;;;22.60;1.00;;;;;;5071618;28;20483;-72
2021/07/28 11:28:49;;;;;;;57.80;2.50;;;22.70;1.00;;;;;;5071652;28;21065;-72
2021/07/28 11:31:22;;;;;;;57.87;2.33;;;23.20;1.00;;;;;;5071630;28;20450;-72
2021/07/28 11:33:49;;;;;;;58.00;2.30;;;23.70;1.00;;;;;;5071558;28;20490;-72
2021/07/28 11:36:19;;;;;;;57.87;2.40;;;24.30;1.00;;;;;;5071550;28;20584;-73
2021/07/28 11:38:47;;;;;;;58.40;2.80;;;25.00;1.00;;;;;;5070746;28;20530;-72
2021/07/28 11:41:21;;;;;;;57.97;2.60;;;25.60;1.00;;;;;;5071714;28;20452;-72
2021/07/28 11:43:48;;;;;;;57.97;2.40;;;26.30;1.00;;;;;;5071685;28;20448;-72
2021/07/28 11:46:18;;;;;;;58.60;2.60;;;27.10;1.00;;;;;;5071543;28;20470;-72
2021/07/28 11:48:46;;;;;;;58.30;2.53;;;27.90;1.00;;;;;;5071600;28;20540;-72
2021/07/28 11:51:25;;;;;;;59.10;2.87;;;28.50;1.00;;;;;;5057009;28;20452;-72
2021/07/28 11:53:53;;;;;;;58.00;2.10;;;29.10;1.00;;;;;;5069419;28;20451;-71
2021/07/28 11:56:20;;;;;;;57.80;2.50;;;29.60;1.00;;;;;;5071697;28;20491;-71
2021/07/28 11:58:49;;;;;;;58.20;2.40;;;29.70;1.00;;;;;;5071497;28;20483;-72
2021/07/28 12:01:20;;;;;;;57.70;2.10;;;30.20;1.00;;;;;;5071389;28;20466;-72
2021/07/28 12:03:49;;;;;;;58.07;2.47;;;30.80;1.00;;;;;;5070979;28;20466;-72
2021/07/28 12:06:16;;;;;;;57.80;2.50;;;30.80;1.00;;;;;;5071433;28;20460;-72
2021/07/28 12:08:44;;;;;;;58.40;2.30;;;30.70;1.00;;;;;;5071228;28;20552;-73
2021/07/28 12:11:12;;;;;;;58.00;2.67;;;30.90;1.00;;;;;;5071091;28;20555;-73
2021/07/28 12:13:41;;;;;;;58.10;2.57;;;31.10;1.00;;;;;;5071171;28;20892;-73
2021/07/28 12:16:07;;;;;;;57.70;2.40;;;31.40;1.00;;;;;;5071082;28;20990;-73
2021/07/28 12:18:45;;;;;;;58.07;2.80;;;31.30;1.00;;;;;;5071107;28;20454;-73
2021/07/28 12:21:12;;;;;;;58.20;2.30;;;31.10;1.00;;;;;;5070070;28;20456;-71
2021/07/28 12:23:51;;;;;;;58.07;2.60;;;31.30;1.00;;;;;;5070709;28;20455;-71
2021/07/28 12:26:17;;;;;;;57.63;2.23;;;31.50;1.00;;;;;;5071180;28;20892;-72
2021/07/28 12:28:48;;;;;;;57.47;2.30;;;31.60;1.00;;;;;;5071089;28;20542;-72
2021/07/28 12:31:26;;;;;;;57.37;2.20;;;31.60;1.00;;;;;;5071162;28;20535;-72
2021/07/28 12:33:53;;;;;;;57.37;2.10;;;31.50;1.00;;;;;;5071314;28;20477;-71
2021/07/28 12:36:27;;;;;;;57.37;2.20;;;31.80;1.00;;;;;;5070985;28;20585;-72
2021/07/28 12:38:56;;;;;;;57.77;2.30;;;32.10;1.00;;;;;;5071173;28;20454;-72
2021/07/28 12:41:24;;;;;;;57.77;2.73;;;32.60;1.00;;;;;;5070650;28;20542;-71
2021/07/28 12:43:52;;;;;;;58.40;3.20;;;32.40;1.00;;;;;;5071193;28;20451;-72
2021/07/28 12:46:19;;;;;;;57.70;2.60;;;32.40;1.00;;;;;;5070943;28;20463;-72
2021/07/28 12:48:46;;;;;;;58.63;2.57;;;32.20;1.00;;;;;;5071100;28;20812;-72
2021/07/28 12:51:14;;;;;;;57.67;2.20;;;31.30;1.00;;;;;;5072887;28;20902;-72
2021/07/28 12:53:41;;;;;;;57.60;2.60;;;30.10;1.00;;;;;;5072822;28;20453;-72